createdAt,value
2023-03-30T00:03:13.307Z,5.59
2023-03-30T00:08:18.545Z,5.57
2023-03-30T00:13:21.904Z,5.53
2023-03-30T00:18:25.219Z,5.50
2023-03-30T00:23:37.022Z,5.47
2023-03-30T00:28:39.939Z,5.45
2023-03-30T00:33:47.059Z,5.40
2023-03-30T00:38:50.763Z,5.36
2023-03-30T00:44:02.583Z,5.32
2023-03-30T00:49:10.712Z,5.29
2023-03-30T00:54:19.142Z,5.28
2023-03-30T00:59:22.241Z,5.26
2023-03-30T01:04:26.106Z,5.26
2023-03-30T01:09:29.993Z,5.25
2023-03-30T01:14:33.102Z,5.24
2023-03-30T01:20:13.132Z,5.23
2023-03-30T01:25:38.721Z,5.21
2023-03-30T01:30:41.629Z,5.21
2023-03-30T01:36:23.771Z,5.20
2023-03-30T01:41:33.713Z,5.17
2023-03-30T01:46:51.097Z,5.14
2023-03-30T01:52:05.841Z,5.11
2023-03-30T01:57:23.934Z,5.09
2023-03-30T02:02:31.228Z,5.05
2023-03-30T02:07:36.874Z,6.00
2023-03-30T02:12:41.010Z,7.88
2023-03-30T02:17:46.149Z,7.15
2023-03-30T02:22:50.297Z,6.19
2023-03-30T02:27:53.304Z,5.73
2023-03-30T02:32:57.020Z,5.46
2023-03-30T02:38:12.526Z,5.29
2023-03-30T02:43:22.905Z,5.18
2023-03-30T02:48:54.277Z,6.75
2023-03-30T02:54:00.050Z,8.35
2023-03-30T02:59:10.536Z,7.07
2023-03-30T03:04:15.704Z,6.14
2023-03-30T03:09:26.281Z,5.71
2023-03-30T03:14:29.894Z,5.42
2023-03-30T03:19:32.817Z,6.56
2023-03-30T03:24:40.067Z,7.84
2023-03-30T03:29:43.012Z,6.77
2023-03-30T03:34:46.034Z,6.04
2023-03-30T03:39:48.922Z,5.63
2023-03-30T03:44:52.447Z,6.19
2023-03-30T03:49:55.344Z,7.75
2023-03-30T03:54:58.449Z,6.97
2023-03-30T04:00:01.359Z,6.21
2023-03-30T04:05:04.722Z,5.75
2023-03-30T04:10:08.747Z,6.32
2023-03-30T04:15:12.220Z,8.06
2023-03-30T04:20:15.552Z,7.23
2023-03-30T04:25:19.647Z,6.34
2023-03-30T04:30:24.294Z,6.66
2023-03-30T04:35:27.217Z,8.64
2023-03-30T04:40:30.437Z,8.03
2023-03-30T04:45:33.460Z,6.77
2023-03-30T04:50:36.849Z,6.12
2023-03-30T04:55:39.765Z,7.29
2023-03-30T05:00:42.656Z,9.00
2023-03-30T05:05:45.769Z,8.06
2023-03-30T05:10:48.978Z,7.00
2023-03-30T05:15:56.710Z,6.99
2023-03-30T05:20:59.908Z,9.10
2023-03-30T05:26:04.919Z,9.07
2023-03-30T05:31:08.313Z,8.23
2023-03-30T05:36:11.840Z,7.71
2023-03-30T05:41:15.209Z,7.68
2023-03-30T05:46:18.137Z,10.01
2023-03-30T05:51:21.329Z,10.68
2023-03-30T05:56:25.456Z,9.63
2023-03-30T06:01:28.530Z,9.21
2023-03-30T06:06:31.777Z,9.03
2023-03-30T06:11:34.992Z,8.57
2023-03-30T06:16:38.282Z,8.16
2023-03-30T06:21:41.425Z,8.66
2023-03-30T06:26:44.397Z,10.17
2023-03-30T06:31:48.163Z,11.71
2023-03-30T06:36:52.241Z,12.85
2023-03-30T06:41:55.299Z,13.26
2023-03-30T06:46:58.284Z,13.20
2023-03-30T06:52:03.227Z,12.89
2023-03-30T06:57:08.143Z,12.58
2023-03-30T07:02:14.869Z,13.37
2023-03-30T07:07:18.199Z,14.09
2023-03-30T07:12:21.111Z,14.96
2023-03-30T07:17:26.483Z,15.82
2023-03-30T07:22:30.291Z,16.45
2023-03-30T07:27:33.161Z,16.85
2023-03-30T07:32:37.220Z,16.50
2023-03-30T07:37:40.860Z,15.97
2023-03-30T07:42:43.954Z,15.74
2023-03-30T07:47:47.057Z,15.34
2023-03-30T07:52:54.386Z,14.87
2023-03-30T07:57:57.787Z,14.34
2023-03-30T08:03:00.786Z,14.14
2023-03-30T08:08:03.908Z,14.43
2023-03-30T08:13:06.807Z,15.24
2023-03-30T08:18:10.164Z,15.51
2023-03-30T08:23:13.823Z,15.44
2023-03-30T08:28:16.868Z,15.83
2023-03-30T08:33:19.865Z,16.36
2023-03-30T08:38:23.585Z,16.92
2023-03-30T08:43:35.270Z,17.54
2023-03-30T08:48:40.348Z,18.06
2023-03-30T08:53:43.250Z,18.07
2023-03-30T08:59:17.064Z,17.62
2023-03-30T09:05:02.139Z,17.04
2023-03-30T09:10:12.660Z,16.65
2023-03-30T09:15:23.036Z,15.92
2023-03-30T09:20:28.616Z,15.15
2023-03-30T09:26:11.461Z,14.77
2023-03-30T09:31:21.928Z,14.98
2023-03-30T09:36:53.461Z,14.85
2023-03-30T09:42:12.031Z,14.71
2023-03-30T09:47:26.156Z,14.50
2023-03-30T09:52:32.411Z,14.28
2023-03-30T09:57:35.418Z,13.89
2023-03-30T10:02:38.928Z,13.30
2023-03-30T10:07:43.197Z,12.99
2023-03-30T10:12:49.401Z,13.05
2023-03-30T10:17:56.438Z,13.23
2023-03-30T10:23:13.935Z,13.64
2023-03-30T10:28:27.488Z,13.76
2023-03-30T10:33:32.013Z,13.35
2023-03-30T10:38:35.518Z,12.91
2023-03-30T10:43:39.564Z,12.53
2023-03-30T10:49:20.353Z,12.17
2023-03-30T10:54:45.501Z,11.90
2023-03-30T11:00:15.426Z,11.76
2023-03-30T11:05:32.710Z,11.84
2023-03-30T11:10:44.254Z,12.23
2023-03-30T11:15:54.472Z,12.96
2023-03-30T11:21:14.961Z,13.82
2023-03-30T11:26:24.840Z,14.68
2023-03-30T11:31:30.713Z,14.52
2023-03-30T11:36:55.928Z,14.02
2023-03-30T11:42:23.318Z,13.56
2023-03-30T11:47:46.719Z,13.19
2023-03-30T11:52:55.322Z,12.87
2023-03-30T11:58:33.873Z,12.61
2023-03-30T12:03:42.815Z,12.59
2023-03-30T12:09:01.248Z,12.64
2023-03-30T12:14:33.331Z,12.72
2023-03-30T12:19:56.250Z,12.62
2023-03-30T12:25:21.682Z,12.53
2023-03-30T12:30:44.347Z,12.39
2023-03-30T12:35:56.314Z,12.20
2023-03-30T12:41:14.554Z,11.96
2023-03-30T12:46:30.661Z,11.65
2023-03-30T12:51:46.351Z,11.31
2023-03-30T12:56:55.517Z,11.78
2023-03-30T13:02:14.020Z,12.16
2023-03-30T13:07:23.435Z,11.49
2023-03-30T13:12:40.341Z,11.11
2023-03-30T13:17:55.832Z,11.19
2023-03-30T13:23:02.146Z,12.89
2023-03-30T13:28:43.443Z,12.21
2023-03-30T13:33:53.023Z,11.35
2023-03-30T13:39:01.915Z,10.90
2023-03-30T13:44:08.128Z,11.43
2023-03-30T13:49:31.184Z,12.42
2023-03-30T13:54:35.177Z,11.56
2023-03-30T13:59:42.954Z,10.99
2023-03-30T14:04:46.574Z,11.93
2023-03-30T14:10:19.994Z,11.49
2023-03-30T14:15:36.017Z,11.10
2023-03-30T14:20:38.921Z,12.34
2023-03-30T14:25:41.918Z,11.32
2023-03-30T14:30:54.040Z,12.04
2023-03-30T14:36:00.478Z,12.15
2023-03-30T14:41:07.546Z,11.25
2023-03-30T14:46:12.865Z,12.12
2023-03-30T14:51:25.935Z,12.29
2023-03-30T14:56:30.091Z,11.28
2023-03-30T15:01:34.237Z,12.09
2023-03-30T15:06:38.112Z,12.39
2023-03-30T15:11:41.461Z,11.67
2023-03-30T15:16:50.556Z,12.71
2023-03-30T15:21:58.226Z,12.58
2023-03-30T15:27:05.514Z,11.75
2023-03-30T15:32:17.741Z,12.98
2023-03-30T15:37:23.210Z,12.33
2023-03-30T15:42:31.152Z,11.85
2023-03-30T15:47:34.399Z,12.91
2023-03-30T15:52:43.079Z,12.19
2023-03-30T15:57:51.815Z,11.98
2023-03-30T16:03:01.662Z,12.84
2023-03-30T16:08:05.507Z,11.79
2023-03-30T16:13:11.556Z,12.23
2023-03-30T16:18:15.250Z,12.87
2023-03-30T16:23:18.245Z,11.88
2023-03-30T16:28:21.324Z,12.73
2023-03-30T16:33:24.653Z,12.38
2023-03-30T16:38:27.643Z,12.22
2023-03-30T16:43:31.163Z,12.98
2023-03-30T16:48:34.078Z,11.89
2023-03-30T16:53:36.976Z,12.81
2023-03-30T16:58:39.882Z,12.71
2023-03-30T17:03:42.885Z,11.81
2023-03-30T17:08:46.092Z,12.68
2023-03-30T17:13:49.299Z,13.17
2023-03-30T17:18:52.208Z,11.94
2023-03-30T17:23:55.013Z,12.34
2023-03-30T17:28:57.912Z,13.36
2023-03-30T17:34:01.021Z,12.55
2023-03-30T17:39:07.425Z,12.67
2023-03-30T17:44:10.540Z,13.56
2023-03-30T17:49:17.624Z,12.59
2023-03-30T17:54:20.833Z,13.35
2023-03-30T17:59:23.736Z,13.41
2023-03-30T18:04:27.872Z,12.32
2023-03-30T18:09:31.498Z,12.84
2023-03-30T18:14:34.530Z,13.65
2023-03-30T18:19:37.504Z,14.00
2023-03-30T18:24:41.241Z,12.96
2023-03-30T18:29:44.335Z,12.45
2023-03-30T18:34:47.363Z,13.28
2023-03-30T18:39:50.248Z,13.83
2023-03-30T18:44:53.714Z,14.30
2023-03-30T18:49:56.978Z,12.88
2023-03-30T18:54:59.982Z,13.35
2023-03-30T19:00:08.618Z,14.10
2023-03-30T19:05:11.630Z,13.18
2023-03-30T19:10:20.999Z,12.68
2023-03-30T19:15:34.960Z,13.79
2023-03-30T19:20:41.253Z,14.35
2023-03-30T19:25:45.151Z,14.56
2023-03-30T19:30:48.605Z,12.84
2023-03-30T19:35:52.450Z,13.34
2023-03-30T19:41:00.372Z,14.42
2023-03-30T19:46:04.310Z,14.73
2023-03-30T19:51:07.336Z,13.23
2023-03-30T19:56:11.614Z,13.00
2023-03-30T20:01:14.754Z,14.32
2023-03-30T20:06:17.609Z,15.06
2023-03-30T20:11:22.460Z,14.69
2023-03-30T20:16:26.230Z,13.02
2023-03-30T20:21:29.193Z,13.62
2023-03-30T20:26:32.913Z,14.40
2023-03-30T20:31:36.681Z,15.02
2023-03-30T20:36:39.744Z,15.43
2023-03-30T20:41:42.859Z,15.10
2023-03-30T20:46:48.317Z,13.84
2023-03-30T20:51:51.539Z,14.78
2023-03-30T20:56:54.477Z,15.37
2023-03-30T21:01:59.284Z,15.57
2023-03-30T21:07:02.186Z,14.08
2023-03-30T21:12:05.693Z,13.47
2023-03-30T21:17:08.632Z,14.69
2023-03-30T21:22:11.729Z,15.31
2023-03-30T21:27:15.036Z,15.51
2023-03-30T21:32:17.942Z,15.74
2023-03-30T21:37:20.943Z,15.80
2023-03-30T21:42:23.853Z,15.78
2023-03-30T21:47:27.183Z,15.66
2023-03-30T21:52:30.482Z,15.71
2023-03-30T21:57:33.692Z,15.70
2023-03-30T22:02:36.568Z,15.76
2023-03-30T22:07:40.211Z,15.79
2023-03-30T22:12:43.220Z,15.84
2023-03-30T22:17:46.127Z,15.77
2023-03-30T22:22:49.576Z,15.64
2023-03-30T22:27:54.369Z,16.23
2023-03-30T22:32:57.649Z,16.40
2023-03-30T22:38:01.013Z,14.35
2023-03-30T22:43:04.024Z,14.38
2023-03-30T22:48:07.077Z,14.74
2023-03-30T22:53:10.045Z,15.22
2023-03-30T22:58:13.861Z,15.41
2023-03-30T23:03:16.853Z,15.46
2023-03-30T23:08:19.977Z,15.58
2023-03-30T23:13:23.898Z,15.83
2023-03-30T23:18:27.226Z,15.98
2023-03-30T23:23:30.220Z,16.00
2023-03-30T23:28:33.122Z,15.80
2023-03-30T23:33:36.289Z,15.56
2023-03-30T23:38:39.671Z,15.48
2023-03-30T23:43:42.864Z,15.29
2023-03-30T23:48:45.769Z,15.13
2023-03-30T23:53:54.435Z,15.08
2023-03-30T23:58:57.412Z,15.11
